Terminal Aerodrome Forecast
Issued by NWS

Home | Current Version | Previous Version | Text Only | Print | Product List | Glossary On
Versions: 1 2 3 4 5 6 7 8 9 10 11 12 13 14 15
000
FTUS45 KTFX 271730
TAFBZN
TAF
KBZN 271730Z 2718/2818 VRB06KT P6SM VCSH BKN060
      TEMPO 2718/2722 3SM -SHRA SCT020 OVC040
     FM272300 28010KT 3SM -SHRA SCT010 OVC030
     FM280300 VRB06KT P6SM SCT020 BKN050=

USA.gov is the U.S. government's official web portal to all federal, state and local government web resources and services.